Time;durP1;ratioP1;P1;durP2;ratioP2;P2;SDS_P1;SDS_P2;PMS_P1;PMS_P2;Temp;Humidity;BMP_temperature;BMP_pressure;BME280_temperature;BME280_humidity;BME280_pressure;Samples;Min_cycle;Max_cycle;Signal;HPM_P1;HPM_P2
2023/12/22 00:01:43;;;;;;;4.68;0.90;;;17.00;47.30;;;;;;5070364;28;20041;-69
2023/12/22 00:04:09;;;;;;;4.10;0.73;;;17.10;47.40;;;;;;5071064;28;20097;-69
2023/12/22 00:06:34;;;;;;;4.78;0.90;;;17.00;47.40;;;;;;5071708;28;20037;-69
2023/12/22 00:09:00;;;;;;;4.97;0.98;;;17.00;47.40;;;;;;5070409;28;20047;-73
2023/12/22 00:11:26;;;;;;;4.15;1.27;;;17.00;47.40;;;;;;5070258;28;20041;-69
2023/12/22 00:13:51;;;;;;;4.13;0.60;;;17.00;47.40;;;;;;5070712;28;20090;-70
2023/12/22 00:16:17;;;;;;;4.45;0.80;;;17.00;47.40;;;;;;5071668;28;20476;-71
2023/12/22 00:18:43;;;;;;;5.95;1.48;;;17.00;47.40;;;;;;5070781;28;20055;-71
2023/12/22 00:21:11;;;;;;;3.85;1.08;;;17.00;47.40;;;;;;5070298;28;20037;-70
2023/12/22 00:23:37;;;;;;;3.15;1.05;;;17.00;47.40;;;;;;5071719;28;20491;-70
2023/12/22 00:26:03;;;;;;;4.65;1.20;;;17.00;47.40;;;;;;5071535;28;20040;-70
2023/12/22 00:28:31;;;;;;;3.90;0.80;;;17.00;47.40;;;;;;5070292;28;20047;-69
2023/12/22 00:30:58;;;;;;;3.55;1.00;;;16.90;47.30;;;;;;5071394;28;20052;-68
2023/12/22 00:33:24;;;;;;;4.13;1.00;;;16.90;47.20;;;;;;5070188;28;20120;-69
2023/12/22 00:35:49;;;;;;;4.70;0.98;;;16.90;47.20;;;;;;5053761;28;20075;-70
2023/12/22 00:38:15;;;;;;;5.88;0.98;;;16.90;47.20;;;;;;5071602;28;20068;-70
2023/12/22 00:40:41;;;;;;;4.80;0.80;;;16.90;47.20;;;;;;5070504;28;20484;-69
2023/12/22 00:43:06;;;;;;;4.78;0.77;;;16.90;47.10;;;;;;5070189;28;20032;-68
2023/12/22 00:45:32;;;;;;;3.85;1.02;;;16.80;47.20;;;;;;5082406;28;20084;-70
2023/12/22 00:47:57;;;;;;;3.78;1.00;;;16.80;47.30;;;;;;5115422;28;20043;-69
2023/12/22 00:50:26;;;;;;;3.72;0.98;;;16.80;47.30;;;;;;5097505;28;20048;-69
2023/12/22 00:52:51;;;;;;;4.60;0.90;;;16.80;47.30;;;;;;5097497;28;20035;-70
2023/12/22 00:55:17;;;;;;;3.35;0.90;;;16.70;47.30;;;;;;5097828;28;20181;-68
2023/12/22 00:57:46;;;;;;;3.72;0.85;;;16.90;48.20;;;;;;5097341;28;20054;-68
2023/12/22 01:00:12;;;;;;;5.07;1.00;;;17.40;46.50;;;;;;5115655;28;20031;-69
2023/12/22 01:02:38;;;;;;;4.25;1.20;;;17.80;45.50;;;;;;5115640;28;20090;-69
2023/12/22 01:05:04;;;;;;;4.65;0.98;;;18.20;44.80;;;;;;5097371;28;20123;-69
2023/12/22 01:07:30;;;;;;;2.60;0.60;;;18.60;44.00;;;;;;5097397;28;20475;-70
2023/12/22 01:10:01;;;;;;;3.42;0.70;;;19.00;43.20;;;;;;5097331;28;20042;-69
2023/12/22 01:12:27;;;;;;;3.42;1.00;;;19.50;42.20;;;;;;5097157;28;20111;-70
2023/12/22 01:14:53;;;;;;;4.18;0.90;;;20.10;41.20;;;;;;5096979;28;20084;-69
2023/12/22 01:17:19;;;;;;;4.15;0.65;;;20.60;40.20;;;;;;5115262;28;20043;-70
2023/12/22 01:19:45;;;;;;;4.72;0.80;;;21.20;39.30;;;;;;5097044;28;20054;-70
2023/12/22 01:22:11;;;;;;;4.78;1.02;;;21.70;38.40;;;;;;5097019;28;20114;-69
2023/12/22 01:24:42;;;;;;;6.47;1.63;;;22.10;37.60;;;;;;5096774;28;20538;-69
2023/12/22 01:27:09;;;;;;;3.88;1.20;;;22.60;37.10;;;;;;5096942;28;20039;-69
2023/12/22 01:29:34;;;;;;;4.30;0.70;;;22.90;36.50;;;;;;5096758;28;20039;-69
2023/12/22 01:32:00;;;;;;;3.03;0.90;;;23.10;36.10;;;;;;5096903;28;20047;-69
2023/12/22 01:34:25;;;;;;;4.93;0.82;;;23.30;35.70;;;;;;5096856;28;20501;-70
2023/12/22 01:36:51;;;;;;;3.40;1.00;;;23.50;35.40;;;;;;5097008;28;20051;-69
2023/12/22 01:39:20;;;;;;;3.70;0.93;;;23.70;35.10;;;;;;5096712;28;20046;-69
2023/12/22 01:41:45;;;;;;;2.60;0.43;;;23.80;34.90;;;;;;5096469;28;20044;-69
2023/12/22 01:44:11;;;;;;;4.80;0.70;;;23.80;34.70;;;;;;5096860;28;20031;-70
2023/12/22 01:46:38;;;;;;;3.90;0.63;;;23.90;35.40;;;;;;5078819;28;20127;-69
2023/12/22 01:49:05;;;;;;;2.60;0.75;;;24.00;34.50;;;;;;5094145;28;20050;-69
2023/12/22 01:51:32;;;;;;;4.03;1.17;;;24.10;34.50;;;;;;5075807;28;20039;-69
2023/12/22 01:53:59;;;;;;;3.47;0.60;;;24.10;34.40;;;;;;5076101;28;20097;-69
2023/12/22 01:56:26;;;;;;;3.00;0.82;;;24.10;34.30;;;;;;5093980;28;20041;-69
2023/12/22 01:58:55;;;;;;;3.28;0.70;;;24.10;34.40;;;;;;5076334;28;20071;-69
2023/12/22 02:01:22;;;;;;;4.55;0.98;;;24.10;35.20;;;;;;5094031;28;20503;-69
2023/12/22 02:03:52;;;;;;;4.32;0.73;;;24.00;34.40;;;;;;5075934;28;20058;-69
2023/12/22 02:06:18;;;;;;;4.22;0.65;;;23.90;34.40;;;;;;5075766;28;20040;-69
2023/12/22 02:08:46;;;;;;;3.47;0.80;;;23.90;34.60;;;;;;5094019;28;20478;-69
2023/12/22 02:11:12;;;;;;;2.65;0.68;;;23.80;34.70;;;;;;5075846;28;20371;-69
2023/12/22 02:13:41;;;;;;;3.33;0.82;;;23.70;34.80;;;;;;5094063;28;20048;-70
2023/12/22 02:16:18;;;;;;;6.60;1.33;;;23.60;34.90;;;;;;5075719;28;20031;-70
2023/12/22 02:18:46;;;;;;;4.60;0.55;;;23.40;35.00;;;;;;5075545;28;20079;-70
2023/12/22 02:21:12;;;;;;;8.02;0.95;;;23.40;35.20;;;;;;5075691;28;20056;-69
2023/12/22 02:23:38;;;;;;;3.72;0.43;;;23.30;35.30;;;;;;5075287;28;20054;-69
2023/12/22 02:26:14;;;;;;;2.05;0.70;;;23.20;35.50;;;;;;5093648;28;20163;-69
2023/12/22 02:28:41;;;;;;;3.28;0.82;;;23.10;35.60;;;;;;5075470;28;20429;-69
2023/12/22 02:31:17;;;;;;;3.03;0.82;;;22.90;35.70;;;;;;5075156;28;20390;-69
2023/12/22 02:33:43;;;;;;;4.55;1.00;;;22.90;35.80;;;;;;5075243;28;20047;-70
2023/12/22 02:36:13;;;;;;;3.35;0.70;;;22.90;35.90;;;;;;5075151;28;20475;-69
2023/12/22 02:38:40;;;;;;;3.60;0.77;;;22.90;35.80;;;;;;5093420;28;20483;-69
2023/12/22 02:41:06;;;;;;;3.78;0.98;;;22.90;35.80;;;;;;5075088;28;20055;-69
2023/12/22 02:43:35;;;;;;;3.63;0.55;;;23.00;35.70;;;;;;5074950;28;20043;-70
2023/12/22 02:46:04;;;;;;;4.57;0.73;;;23.00;35.60;;;;;;5087292;28;20075;-69
2023/12/22 02:48:29;;;;;;;5.22;1.13;;;23.10;35.60;;;;;;5095158;28;20475;-70
2023/12/22 02:50:55;;;;;;;4.05;0.82;;;23.20;35.50;;;;;;5095080;28;20061;-70
2023/12/22 02:53:21;;;;;;;2.63;0.40;;;23.30;35.40;;;;;;5082728;28;20047;-69
2023/12/22 02:55:46;;;;;;;3.83;0.63;;;23.30;35.30;;;;;;5092993;28;20387;-70
2023/12/22 02:58:18;;;;;;;2.85;0.50;;;23.40;35.30;;;;;;5074985;28;20123;-69
2023/12/22 03:00:43;;;;;;;3.85;0.63;;;23.30;35.20;;;;;;5074670;28;20044;-69
2023/12/22 03:03:09;;;;;;;2.70;0.70;;;23.40;35.20;;;;;;5092623;28;20040;-70
2023/12/22 03:05:34;;;;;;;2.70;0.50;;;23.30;35.10;;;;;;5074644;28;20043;-70
2023/12/22 03:08:00;;;;;;;3.08;0.52;;;23.30;35.20;;;;;;5074126;28;20056;-69
2023/12/22 03:10:25;;;;;;;2.97;0.70;;;23.30;35.30;;;;;;5092540;28;20044;-70
2023/12/22 03:12:51;;;;;;;1.95;0.40;;;23.20;35.40;;;;;;5074779;28;20044;-70
2023/12/22 03:15:17;;;;;;;2.78;0.50;;;23.20;35.40;;;;;;5075117;28;20040;-70
2023/12/22 03:17:42;;;;;;;4.95;0.50;;;23.10;35.50;;;;;;5074458;28;20044;-70
2023/12/22 03:20:09;;;;;;;3.20;0.75;;;23.00;35.50;;;;;;5074401;28;20071;-70
2023/12/22 03:22:34;;;;;;;4.50;0.65;;;23.00;35.60;;;;;;5074216;28;20048;-70
2023/12/22 03:25:00;;;;;;;2.72;0.50;;;22.90;35.70;;;;;;5092502;28;20459;-70
2023/12/22 03:27:25;;;;;;;2.67;0.60;;;22.90;35.80;;;;;;5107972;28;20044;-70
2023/12/22 03:29:51;;;;;;;1.42;0.38;;;22.80;35.80;;;;;;5074282;28;20047;-70
2023/12/22 03:32:17;;;;;;;2.22;0.50;;;22.80;35.90;;;;;;5074088;28;20047;-70
2023/12/22 03:34:42;;;;;;;2.70;0.50;;;22.80;35.90;;;;;;5074441;28;20046;-69
2023/12/22 03:37:08;;;;;;;3.17;0.40;;;22.80;36.00;;;;;;5092304;28;20479;-69
2023/12/22 03:39:34;;;;;;;1.95;0.47;;;22.80;36.00;;;;;;5074380;28;20132;-70
2023/12/22 03:41:59;;;;;;;1.77;0.38;;;22.80;36.00;;;;;;5074150;28;20040;-70
2023/12/22 03:44:25;;;;;;;3.70;0.70;;;22.90;36.00;;;;;;5074229;28;20035;-69
2023/12/22 03:46:51;;;;;;;5.30;0.40;;;22.90;35.90;;;;;;5091938;28;20483;-70
2023/12/22 03:49:17;;;;;;;2.22;0.70;;;23.00;35.80;;;;;;5074169;28;20059;-70
2023/12/22 03:51:42;;;;;;;2.17;0.30;;;23.00;35.70;;;;;;5074061;28;20037;-70
2023/12/22 03:54:08;;;;;;;2.95;0.30;;;23.10;35.70;;;;;;5092319;28;20517;-70
2023/12/22 03:56:34;;;;;;;3.45;0.40;;;23.10;35.60;;;;;;5074557;28;20052;-70
2023/12/22 03:58:59;;;;;;;1.90;0.40;;;23.20;35.60;;;;;;5073788;28;20032;-70
2023/12/22 04:01:25;;;;;;;1.95;0.45;;;23.20;35.60;;;;;;5073958;28;20051;-70
2023/12/22 04:03:51;;;;;;;2.03;0.55;;;23.10;35.50;;;;;;5073689;28;20048;-69
2023/12/22 04:06:16;;;;;;;1.98;0.50;;;23.10;35.60;;;;;;5092180;28;20036;-69
2023/12/22 04:08:42;;;;;;;2.67;0.30;;;23.10;35.70;;;;;;5073863;28;20066;-70
2023/12/22 04:11:08;;;;;;;3.22;0.45;;;23.00;35.70;;;;;;5073791;28;20055;-70
2023/12/22 04:13:33;;;;;;;2.53;0.45;;;23.00;35.80;;;;;;5073734;28;20047;-69
2023/12/22 04:15:59;;;;;;;1.77;0.30;;;23.00;35.80;;;;;;5074037;28;20049;-70
2023/12/22 04:18:24;;;;;;;1.88;0.22;;;23.00;35.90;;;;;;5091787;28;20376;-70
2023/12/22 04:20:53;;;;;;;1.85;0.40;;;22.90;35.90;;;;;;5076715;28;20037;-70
2023/12/22 04:23:19;;;;;;;2.05;0.35;;;22.90;36.10;;;;;;5077657;28;20399;-70
2023/12/22 04:25:44;;;;;;;2.10;0.50;;;22.80;36.10;;;;;;5077949;28;20048;-70
2023/12/22 04:28:10;;;;;;;1.40;0.43;;;22.70;36.10;;;;;;5095790;28;20055;-69
2023/12/22 04:30:36;;;;;;;1.77;0.30;;;22.70;36.10;;;;;;5077567;28;20036;-69
2023/12/22 04:33:02;;;;;;;3.13;0.43;;;22.80;36.20;;;;;;5095592;28;20032;-69
2023/12/22 04:35:28;;;;;;;2.72;0.73;;;22.70;36.10;;;;;;5077385;28;20050;-69
2023/12/22 04:37:53;;;;;;;1.98;0.38;;;22.80;36.10;;;;;;5095821;28;20036;-69
2023/12/22 04:40:19;;;;;;;2.20;0.65;;;22.80;35.90;;;;;;5077512;28;20044;-70
2023/12/22 04:42:48;;;;;;;2.88;0.40;;;22.90;35.90;;;;;;5077378;28;20048;-68
2023/12/22 04:45:14;;;;;;;1.52;0.20;;;22.90;35.90;;;;;;5077384;28;20056;-70
2023/12/22 04:47:40;;;;;;;2.42;0.40;;;23.00;35.80;;;;;;5077079;28;20052;-70
2023/12/22 04:50:06;;;;;;;2.90;0.30;;;23.00;35.70;;;;;;5077389;28;20050;-69
2023/12/22 04:52:32;;;;;;;1.90;0.30;;;23.00;35.60;;;;;;5095171;28;20451;-69
2023/12/22 04:54:57;;;;;;;1.83;0.28;;;23.00;35.70;;;;;;5077185;28;20123;-70
2023/12/22 04:57:23;;;;;;;2.03;0.40;;;23.00;35.60;;;;;;5077107;28;20040;-69
2023/12/22 04:59:51;;;;;;;2.63;0.52;;;23.00;35.70;;;;;;5076924;28;20076;-69
2023/12/22 05:02:20;;;;;;;2.13;0.40;;;23.00;35.70;;;;;;5077182;28;20047;-70
2023/12/22 05:04:46;;;;;;;1.90;0.32;;;23.00;35.80;;;;;;5076810;28;20046;-70
2023/12/22 05:07:11;;;;;;;2.42;0.38;;;22.90;35.80;;;;;;5077245;28;20043;-70
2023/12/22 05:09:37;;;;;;;1.85;0.30;;;23.00;35.80;;;;;;5076857;28;20056;-69
2023/12/22 05:12:03;;;;;;;2.28;0.50;;;23.00;35.90;;;;;;5077087;28;20044;-70
2023/12/22 05:14:32;;;;;;;2.45;0.45;;;23.00;35.90;;;;;;5076702;28;20051;-70
2023/12/22 05:16:57;;;;;;;1.00;0.30;;;22.90;35.80;;;;;;5076752;28;20071;-70
2023/12/22 05:19:23;;;;;;;1.83;0.30;;;22.90;35.80;;;;;;5076742;28;20078;-70
2023/12/22 05:21:49;;;;;;;1.05;0.30;;;23.00;35.80;;;;;;5076831;28;20123;-68
2023/12/22 05:24:15;;;;;;;2.03;0.30;;;23.00;35.80;;;;;;5094814;28;20040;-70
2023/12/22 05:26:40;;;;;;;1.95;0.30;;;23.00;35.70;;;;;;5076876;28;20048;-69
2023/12/22 05:29:08;;;;;;;2.83;0.40;;;23.10;35.60;;;;;;5076547;28;20047;-70
2023/12/22 05:31:34;;;;;;;3.10;0.32;;;23.10;35.60;;;;;;5075883;28;20075;-70
2023/12/22 05:34:00;;;;;;;1.40;0.30;;;23.20;35.50;;;;;;5076271;28;20161;-69
2023/12/22 05:36:26;;;;;;;2.20;0.50;;;23.20;35.40;;;;;;5094835;28;20067;-70
2023/12/22 05:38:51;;;;;;;1.67;0.22;;;23.30;35.30;;;;;;5076270;28;20040;-69
2023/12/22 05:41:17;;;;;;;1.95;0.60;;;23.30;35.30;;;;;;5076439;28;20047;-70
2023/12/22 05:43:43;;;;;;;2.15;0.30;;;23.30;35.20;;;;;;5076367;28;20083;-70
2023/12/22 05:46:09;;;;;;;2.22;0.60;;;23.30;35.20;;;;;;5076092;28;20399;-70
2023/12/22 05:48:35;;;;;;;1.88;0.30;;;23.30;35.20;;;;;;5076015;28;20048;-70
2023/12/22 05:51:03;;;;;;;1.45;0.20;;;23.30;35.10;;;;;;5076285;28;20048;-70
2023/12/22 05:53:29;;;;;;;1.80;0.70;;;23.40;35.20;;;;;;5075828;28;20031;-70
2023/12/22 05:55:54;;;;;;;2.67;0.40;;;23.40;35.20;;;;;;5076124;28;20048;-69
2023/12/22 05:58:20;;;;;;;1.50;0.38;;;23.30;35.20;;;;;;5076026;28;20040;-69
2023/12/22 06:00:46;;;;;;;2.15;0.40;;;23.30;35.20;;;;;;5094159;28;20119;-69
2023/12/22 06:03:11;;;;;;;2.97;0.68;;;23.30;35.30;;;;;;5076280;28;20487;-69
2023/12/22 06:05:38;;;;;;;1.65;0.20;;;23.30;35.30;;;;;;5075898;28;20036;-69
2023/12/22 06:08:04;;;;;;;1.38;0.30;;;23.30;35.30;;;;;;5093085;28;20445;-69
2023/12/22 06:10:29;;;;;;;2.55;0.30;;;23.20;35.30;;;;;;5076162;28;20036;-69
2023/12/22 06:12:57;;;;;;;2.15;0.30;;;23.20;35.40;;;;;;5094074;28;20493;-69
2023/12/22 06:15:24;;;;;;;2.30;0.50;;;23.20;35.40;;;;;;5093844;28;20032;-69
2023/12/22 06:17:52;;;;;;;2.60;0.45;;;23.20;35.40;;;;;;5093941;28;20040;-69
2023/12/22 06:20:18;;;;;;;1.73;0.38;;;23.20;35.50;;;;;;5093807;28;20088;-69
2023/12/22 06:22:43;;;;;;;1.90;0.30;;;23.10;35.50;;;;;;5093907;28;20044;-69
2023/12/22 06:25:09;;;;;;;3.28;0.40;;;23.10;35.50;;;;;;5075197;28;20483;-69
2023/12/22 06:27:36;;;;;;;1.73;0.50;;;23.10;35.50;;;;;;5075570;28;20044;-69
2023/12/22 06:30:03;;;;;;;2.03;0.20;;;23.10;35.50;;;;;;5093518;28;20044;-69
2023/12/22 06:32:29;;;;;;;1.88;0.40;;;23.10;35.50;;;;;;5075621;28;20044;-68
2023/12/22 06:34:54;;;;;;;2.42;0.40;;;23.10;35.40;;;;;;5075028;28;20055;-69
2023/12/22 06:37:20;;;;;;;2.33;0.47;;;23.10;35.50;;;;;;5075616;28;20040;-70
2023/12/22 06:39:46;;;;;;;3.17;0.30;;;23.10;35.40;;;;;;5075116;28;20044;-70
2023/12/22 06:42:12;;;;;;;1.33;0.40;;;23.10;35.50;;;;;;5075521;28;20044;-68
2023/12/22 06:44:38;;;;;;;1.85;0.40;;;23.10;35.40;;;;;;5074821;28;20047;-69
2023/12/22 06:47:06;;;;;;;2.20;0.32;;;23.20;35.40;;;;;;5074762;28;20052;-70
2023/12/22 06:49:32;;;;;;;3.45;0.60;;;23.30;35.40;;;;;;5074749;28;20048;-70
2023/12/22 06:51:57;;;;;;;2.53;0.47;;;23.20;35.30;;;;;;5073574;28;20101;-70
2023/12/22 06:54:23;;;;;;;3.25;0.30;;;23.20;35.30;;;;;;5092633;28;20038;-69
2023/12/22 06:56:48;;;;;;;2.47;0.30;;;23.20;35.20;;;;;;5074002;28;20032;-70
2023/12/22 06:59:14;;;;;;;2.40;0.65;;;23.30;35.30;;;;;;5073337;28;20040;-69
2023/12/22 07:01:40;;;;;;;2.60;0.20;;;23.30;35.30;;;;;;5091480;28;20396;-70
2023/12/22 07:04:06;;;;;;;1.65;0.40;;;23.30;35.30;;;;;;5071979;28;20036;-69
2023/12/22 07:06:33;;;;;;;4.00;0.40;;;23.30;35.20;;;;;;5090977;28;20032;-66
2023/12/22 07:11:54;;;;;;;3.47;0.40;;;23.30;35.20;;;;;;5125797;27;20573;-66
2023/12/22 07:14:24;;;;;;;4.93;0.50;;;23.00;35.60;;;;;;5082835;28;20040;-70
2023/12/22 07:16:50;;;;;;;4.15;0.75;;;22.90;35.70;;;;;;5102454;28;20299;-70
2023/12/22 07:19:15;;;;;;;3.80;0.60;;;22.90;35.90;;;;;;5090214;28;20039;-67
2023/12/22 07:21:41;;;;;;;4.80;0.60;;;22.90;36.00;;;;;;5089834;28;20506;-70
2023/12/22 07:24:07;;;;;;;2.53;0.30;;;22.90;35.90;;;;;;5101704;28;20032;-65
2023/12/22 07:26:33;;;;;;;5.78;0.90;;;23.00;35.80;;;;;;5100366;28;20069;-74
2023/12/22 07:29:04;;;;;;;4.75;0.70;;;23.10;35.70;;;;;;5093159;28;20032;-71
2023/12/22 07:31:30;;;;;;;2.03;0.63;;;23.20;35.70;;;;;;5106436;28;20075;-71
2023/12/22 07:33:56;;;;;;;5.60;0.90;;;23.30;35.40;;;;;;5071153;28;20094;-71
2023/12/22 07:36:21;;;;;;;4.88;0.73;;;23.30;34.80;;;;;;5091397;28;20036;-70
2023/12/22 07:38:47;;;;;;;6.75;1.05;;;23.30;34.50;;;;;;5071705;28;20043;-71
2023/12/22 07:41:13;;;;;;;6.78;0.88;;;23.40;34.30;;;;;;5077218;28;20051;-71
2023/12/22 07:43:39;;;;;;;11.00;1.25;;;23.30;34.10;;;;;;5081263;28;20031;-70
2023/12/22 07:46:04;;;;;;;6.13;0.80;;;23.30;34.10;;;;;;5072379;28;20682;-70
2023/12/22 07:48:30;;;;;;;5.28;0.88;;;23.30;34.20;;;;;;5090858;28;20333;-70
2023/12/22 07:50:56;;;;;;;7.47;0.82;;;23.30;34.20;;;;;;5075312;28;20533;-70
2023/12/22 07:53:24;;;;;;;5.55;1.00;;;23.40;34.30;;;;;;5099523;28;20039;-70
2023/12/22 07:55:50;;;;;;;5.63;0.70;;;23.40;34.40;;;;;;5090604;28;20041;-67
2023/12/22 07:58:17;;;;;;;4.32;0.70;;;23.40;34.50;;;;;;5071155;28;20414;-69
2023/12/22 08:00:43;;;;;;;2.30;0.40;;;23.50;34.60;;;;;;5081881;28;20425;-67
2023/12/22 08:03:09;;;;;;;6.47;0.68;;;23.50;34.60;;;;;;5074248;28;20047;-70
2023/12/22 08:05:35;;;;;;;5.15;0.68;;;23.50;34.80;;;;;;5092645;28;20044;-71
2023/12/22 08:08:01;;;;;;;7.60;0.75;;;23.40;34.90;;;;;;5074047;28;20044;-70
2023/12/22 08:10:27;;;;;;;1.67;0.43;;;23.30;35.00;;;;;;5088917;28;20091;-69
2023/12/22 08:12:53;;;;;;;6.43;0.77;;;23.30;35.30;;;;;;5088784;28;20420;-70
2023/12/22 08:15:18;;;;;;;5.13;0.65;;;23.30;35.60;;;;;;5092179;28;20086;-70
2023/12/22 08:17:48;;;;;;;2.63;0.68;;;23.30;35.70;;;;;;5090820;28;20277;-70
2023/12/22 08:20:19;;;;;;;3.73;1.03;;;23.30;35.80;;;;;;5081130;28;20203;-69
2023/12/22 08:22:45;;;;;;;5.43;0.70;;;23.20;36.00;;;;;;5068440;28;20297;-67
2023/12/22 08:25:11;;;;;;;2.83;0.60;;;23.20;36.20;;;;;;5077322;28;20048;-70
2023/12/22 08:27:37;;;;;;;4.22;0.93;;;23.10;36.30;;;;;;5067315;28;20137;-70
2023/12/22 08:30:03;;;;;;;3.10;0.32;;;23.20;36.50;;;;;;5079914;28;20047;-69
2023/12/22 08:32:29;;;;;;;5.55;0.70;;;23.20;36.60;;;;;;5070649;28;20036;-71
2023/12/22 08:34:54;;;;;;;4.32;0.50;;;23.20;36.60;;;;;;5059822;28;20102;-69
2023/12/22 08:37:20;;;;;;;5.95;0.73;;;23.20;36.50;;;;;;5068041;28;20079;-70
2023/12/22 08:39:46;;;;;;;4.65;0.68;;;23.40;36.30;;;;;;5079765;28;20032;-69
2023/12/22 08:42:12;;;;;;;3.78;0.75;;;23.40;36.10;;;;;;5071356;28;20487;-68
2023/12/22 08:44:37;;;;;;;2.47;0.30;;;23.50;36.00;;;;;;5051006;28;20805;-67
2023/12/22 08:47:03;;;;;;;4.55;0.40;;;23.50;36.00;;;;;;5047725;28;20054;-66
2023/12/22 08:49:29;;;;;;;6.00;0.70;;;23.50;36.10;;;;;;5048828;28;20430;-67
2023/12/22 08:51:54;;;;;;;3.65;0.70;;;23.70;36.10;;;;;;5051899;28;20071;-66
2023/12/22 08:54:20;;;;;;;5.45;0.60;;;23.80;36.00;;;;;;5052294;28;20036;-67
2023/12/22 08:56:49;;;;;;;4.15;0.65;;;23.90;35.70;;;;;;5055928;28;20485;-67
2023/12/22 08:59:14;;;;;;;2.17;0.55;;;23.80;35.60;;;;;;5050743;28;20130;-70
2023/12/22 09:01:42;;;;;;;3.80;0.50;;;23.50;35.60;;;;;;5060087;28;20147;-65
2023/12/22 09:04:09;;;;;;;6.13;0.75;;;23.50;35.90;;;;;;5055669;28;20068;-65
2023/12/22 09:06:34;;;;;;;1.80;0.30;;;23.40;36.10;;;;;;5053184;28;20399;-65
2023/12/22 09:09:04;;;;;;;2.58;0.73;;;23.30;36.10;;;;;;5050907;28;20283;-66
2023/12/22 09:11:30;;;;;;;4.93;0.88;;;23.30;36.20;;;;;;5047488;28;20225;-66
2023/12/22 09:13:55;;;;;;;4.50;0.60;;;23.20;36.30;;;;;;5070573;28;20102;-65
2023/12/22 09:16:22;;;;;;;6.30;0.65;;;23.20;36.40;;;;;;5050841;28;20180;-66
2023/12/22 09:18:53;;;;;;;2.65;0.52;;;23.20;36.40;;;;;;5071178;28;20115;-68
2023/12/22 09:21:19;;;;;;;2.80;0.50;;;23.20;36.40;;;;;;5052225;28;20059;-68
2023/12/22 09:23:49;;;;;;;3.25;0.43;;;23.20;37.30;;;;;;5070354;28;20044;-68
2023/12/22 09:26:15;;;;;;;3.47;0.35;;;23.20;36.50;;;;;;5064066;28;20254;-65
2023/12/22 09:28:42;;;;;;;7.22;0.55;;;23.20;36.60;;;;;;5061583;28;20048;-67
2023/12/22 09:31:08;;;;;;;4.25;0.40;;;23.30;36.50;;;;;;5062284;28;20036;-69
2023/12/22 09:33:33;;;;;;;3.38;0.45;;;23.30;36.40;;;;;;5083623;28;20102;-68
2023/12/22 09:35:59;;;;;;;3.72;0.32;;;23.40;36.40;;;;;;5066131;28;20033;-71
2023/12/22 09:38:25;;;;;;;3.42;0.70;;;23.40;36.20;;;;;;5056856;28;20360;-70
2023/12/22 09:40:51;;;;;;;5.35;0.40;;;23.50;36.10;;;;;;5071145;28;20047;-67
2023/12/22 09:43:19;;;;;;;6.03;0.40;;;23.60;36.00;;;;;;5069832;28;20035;-70
2023/12/22 09:45:46;;;;;;;3.28;0.38;;;23.60;35.80;;;;;;5059889;28;20050;-68
2023/12/22 09:48:17;;;;;;;4.13;0.35;;;23.60;35.70;;;;;;5060274;28;20534;-70
2023/12/22 09:50:43;;;;;;;;;;;23.70;35.70;;;;;;5061448;28;20044;-68
2023/12/22 09:53:12;;;;;;;4.13;0.63;;;23.70;35.80;;;;;;5074123;28;19935;-69
2023/12/22 09:55:38;;;;;;;3.55;0.25;;;23.70;35.80;;;;;;5064656;28;20051;-69
2023/12/22 09:58:05;;;;;;;2.72;0.30;;;23.80;36.00;;;;;;5083954;28;20040;-71
2023/12/22 10:00:32;;;;;;;4.07;0.50;;;23.80;36.00;;;;;;5065838;28;20040;-70
2023/12/22 10:02:58;;;;;;;3.20;0.32;;;23.70;36.10;;;;;;5068929;28;20047;-69
2023/12/22 10:05:23;;;;;;;5.03;0.40;;;23.80;36.30;;;;;;5065618;28;20475;-71
2023/12/22 10:07:50;;;;;;;3.83;0.40;;;23.80;36.40;;;;;;5079418;28;20273;-71
2023/12/22 10:10:16;;;;;;;4.03;0.95;;;23.80;36.50;;;;;;5067530;28;20124;-71
2023/12/22 10:12:45;;;;;;;1.77;0.25;;;23.80;36.50;;;;;;5065935;28;20044;-70
2023/12/22 10:15:12;;;;;;;2.38;0.40;;;23.70;36.70;;;;;;5071346;28;20115;-70
2023/12/22 10:17:39;;;;;;;1.63;0.28;;;23.80;36.70;;;;;;5064847;28;20081;-70
2023/12/22 10:20:05;;;;;;;1.77;0.47;;;23.80;36.70;;;;;;5053022;28;20053;-68
2023/12/22 10:22:31;;;;;;;3.00;0.40;;;23.70;36.70;;;;;;5062161;28;20391;-69
2023/12/22 10:24:56;;;;;;;3.10;0.20;;;23.70;36.70;;;;;;5074111;28;20048;-68
2023/12/22 10:27:22;;;;;;;1.88;0.28;;;23.70;36.90;;;;;;5063975;28;20093;-66
2023/12/22 10:29:50;;;;;;;1.45;0.55;;;23.60;37.00;;;;;;5059451;28;20048;-68
2023/12/22 10:32:16;;;;;;;3.60;0.20;;;23.50;37.10;;;;;;5080893;28;20388;-69
2023/12/22 10:34:45;;;;;;;3.00;0.22;;;23.50;37.30;;;;;;5066181;28;20048;-70
2023/12/22 10:37:12;;;;;;;1.85;0.30;;;23.40;37.40;;;;;;5081060;28;20032;-67
2023/12/22 10:39:38;;;;;;;1.00;0.20;;;23.30;37.50;;;;;;5087829;28;20050;-65
2023/12/22 10:42:07;;;;;;;1.52;0.20;;;23.30;37.60;;;;;;5070437;28;20466;-68
2023/12/22 10:44:33;;;;;;;1.88;0.30;;;23.30;37.70;;;;;;5064202;28;20041;-67
2023/12/22 10:47:00;;;;;;;1.65;0.30;;;23.30;37.80;;;;;;5073350;28;20036;-68
2023/12/22 10:49:26;;;;;;;0.73;0.30;;;23.30;37.90;;;;;;5059787;28;20064;-66
2023/12/22 10:51:52;;;;;;;3.33;0.43;;;23.30;37.90;;;;;;5075393;28;20102;-68
2023/12/22 10:54:19;;;;;;;1.25;0.40;;;23.30;38.00;;;;;;5061607;28;20039;-68
2023/12/22 10:56:45;;;;;;;3.10;0.32;;;23.20;38.00;;;;;;5058058;28;20036;-66
2023/12/22 10:59:11;;;;;;;5.82;0.30;;;23.30;38.00;;;;;;5056487;28;20283;-66
2023/12/22 11:01:38;;;;;;;2.45;0.10;;;23.30;38.00;;;;;;5018672;28;20035;-66
2023/12/22 11:04:07;;;;;;;4.10;0.40;;;23.20;37.80;;;;;;5047143;28;20063;-67
2023/12/22 11:06:37;;;;;;;3.17;0.20;;;23.20;37.70;;;;;;5051574;28;20036;-67
2023/12/22 11:09:09;;;;;;;3.17;0.20;;;23.10;37.80;;;;;;5052543;28;20044;-67
2023/12/22 11:11:36;;;;;;;1.98;0.20;;;23.10;37.80;;;;;;5061959;28;20448;-67
2023/12/22 11:14:03;;;;;;;2.63;0.28;;;23.10;37.70;;;;;;5077142;28;20036;-67
2023/12/22 11:16:30;;;;;;;3.67;0.30;;;23.10;37.60;;;;;;5078469;28;20036;-68
2023/12/22 11:18:57;;;;;;;3.15;0.10;;;23.10;37.70;;;;;;5072605;28;20071;-65
2023/12/22 11:21:23;;;;;;;3.22;0.17;;;23.10;37.70;;;;;;5089257;28;20035;-64
2023/12/22 11:23:51;;;;;;;2.38;0.20;;;23.10;37.80;;;;;;5087014;28;20066;-65
2023/12/22 11:26:18;;;;;;;3.58;0.45;;;23.10;37.90;;;;;;5068510;28;20073;-66
2023/12/22 11:28:49;;;;;;;2.88;0.20;;;23.20;37.80;;;;;;5072180;28;20144;-68
2023/12/22 11:31:16;;;;;;;2.25;0.30;;;23.20;37.60;;;;;;5069665;28;20243;-67
2023/12/22 11:33:49;;;;;;;2.78;0.30;;;23.20;37.50;;;;;;5058130;28;20053;-68
2023/12/22 11:36:22;;;;;;;1.10;0.13;;;23.20;37.50;;;;;;5093514;28;20813;-64
2023/12/22 11:38:48;;;;;;;2.88;0.10;;;23.20;37.40;;;;;;5101536;28;20409;-64
2023/12/22 11:41:19;;;;;;;1.90;0.20;;;23.20;37.40;;;;;;5102886;28;20032;-67
2023/12/22 11:43:46;;;;;;;2.08;0.10;;;23.20;37.40;;;;;;5075452;28;20684;-67
2023/12/22 11:46:12;;;;;;;0.65;0.08;;;23.20;37.50;;;;;;5069827;28;20165;-67
2023/12/22 11:48:39;;;;;;;0.50;0.10;;;23.20;37.50;;;;;;5089578;28;20150;-67
2023/12/22 11:51:14;;;;;;;1.77;0.00;;;23.20;37.60;;;;;;5088052;28;20043;-65
2023/12/22 11:53:40;;;;;;;1.05;0.30;;;23.10;37.60;;;;;;5094574;28;20047;-68
2023/12/22 11:56:08;;;;;;;1.25;0.10;;;23.10;37.70;;;;;;5070634;28;20062;-69
2023/12/22 12:01:15;;;;;;;0.57;0.10;;;23.00;37.60;;;;;;5126420;27;20469;-66
2023/12/22 12:03:47;;;;;;;1.20;0.17;;;23.00;37.70;;;;;;5125116;28;20051;-66
2023/12/22 12:08:54;;;;;;;0.68;0.10;;;23.00;37.70;;;;;;5124035;27;20426;-66
2023/12/22 12:11:20;;;;;;;2.00;0.10;;;23.10;37.80;;;;;;5114352;28;20123;-64
2023/12/22 12:13:47;;;;;;;0.75;0.10;;;23.10;37.80;;;;;;5105974;28;20054;-66
2023/12/22 12:16:14;;;;;;;0.55;0.10;;;23.00;37.70;;;;;;5105612;28;20494;-66
2023/12/22 12:18:40;;;;;;;0.50;0.00;;;23.10;37.80;;;;;;5104903;28;20092;-63
2023/12/22 12:21:08;;;;;;;0.47;0.10;;;23.00;37.90;;;;;;5107669;28;20039;-64
2023/12/22 12:23:34;;;;;;;0.63;0.05;;;23.10;37.90;;;;;;5114737;28;20035;-65
2023/12/22 12:26:00;;;;;;;0.25;0.00;;;23.10;38.00;;;;;;5117557;27;20554;-67
2023/12/22 12:28:28;;;;;;;1.38;0.10;;;23.10;37.90;;;;;;5117625;28;20050;-66
2023/12/22 12:30:59;;;;;;;0.55;0.10;;;23.10;38.00;;;;;;5117270;27;20038;-66
2023/12/22 12:33:26;;;;;;;0.98;0.13;;;23.10;38.00;;;;;;5113518;28;20585;-65
2023/12/22 12:35:56;;;;;;;0.68;0.00;;;23.20;38.00;;;;;;5116831;27;20035;-68
2023/12/22 12:38:46;;;;;;;0.47;0.00;;;23.10;38.00;;;;;;5122682;27;20479;-69
2023/12/22 12:41:14;;;;;;;0.30;0.00;;;23.20;38.10;;;;;;5115731;28;20565;-66
2023/12/22 12:43:43;;;;;;;0.88;0.10;;;23.10;38.00;;;;;;5116091;28;20056;-65
2023/12/22 12:46:09;;;;;;;0.43;0.00;;;23.20;38.10;;;;;;5116061;28;20027;-64
2023/12/22 12:48:35;;;;;;;0.20;0.00;;;23.20;38.20;;;;;;5123499;28;20046;-66
2023/12/22 12:51:07;;;;;;;0.40;0.00;;;23.20;38.10;;;;;;5124528;27;20401;-64
2023/12/22 12:53:35;;;;;;;1.30;0.08;;;23.20;38.10;;;;;;5118540;27;20500;-66